Abadan-Ayatollah Jami International Airport

Airport
ICAO code: 
OIAA
IATA Code: 
ABD
Summary
ICAO Region: 
MID
Territory: 
Location: 
Abadan, Khuzestan
Serving: 
Abadan
Elevation: 
7 ft
Coordinates: 
Aerial View: 
30° 21' 50.818" N, 48° 13' 36.879" E
Metar
Observation
OIAA 031500Z 28006KT CAVOK 17/03 Q1019
Station
Abadan
Date/Time
2021-12-03 15:00:00
Wind direction
280°
Wind speed
06 kts
Lowest cloud amount
clouds and visibility OK
Temperature
17°C
Dew point
3°C
Humidity
39%
QNH
1019 hPa
Weather condition
n/a

Abadan International Airport is situated 12 km away from the city of Abadan, Iran.

Climatology

Warm desert climate (Köppen climate classification BWh).

Runways

Designator Length Width Surface Rops
14L/32R 2267 35 ASP No/No
14R/32L 3100 45 ASP No/No
Airport map: 
Aerial View: 

SKYbrary Partners:

Safety knowledge contributed by: